createdAt,value
2023-05-03T00:00:08.875Z,984.46
2023-05-03T00:01:08.610Z,984.55
2023-05-03T00:02:08.733Z,984.54
2023-05-03T00:03:08.707Z,984.57
2023-05-03T00:04:08.569Z,984.57
2023-05-03T00:05:08.609Z,984.48
2023-05-03T00:06:08.576Z,984.48
2023-05-03T00:07:08.532Z,984.48
2023-05-03T00:08:08.515Z,984.46
2023-05-03T00:09:08.522Z,984.48
2023-05-03T00:10:08.487Z,984.47
2023-05-03T00:11:08.472Z,984.47
2023-05-03T00:12:08.459Z,984.48
2023-05-03T00:13:08.445Z,984.46
2023-05-03T00:14:08.430Z,984.46
2023-05-03T00:15:08.421Z,984.52
2023-05-03T00:16:08.404Z,984.56
2023-05-03T00:17:08.444Z,984.52
2023-05-03T00:18:08.723Z,984.53
2023-05-03T00:19:12.632Z,984.59
2023-05-03T00:20:09.406Z,984.53
2023-05-03T00:21:08.333Z,984.54
2023-05-03T00:22:08.329Z,984.50
2023-05-03T00:23:08.305Z,984.51
2023-05-03T00:24:08.298Z,984.51
2023-05-03T00:25:08.289Z,984.56
2023-05-03T00:26:08.269Z,984.47
2023-05-03T00:27:08.250Z,984.50
2023-05-03T00:28:08.240Z,984.48
2023-05-03T00:29:08.227Z,984.49
2023-05-03T00:30:08.218Z,984.56
2023-05-03T00:31:08.245Z,984.51
2023-05-03T00:32:08.189Z,984.50
2023-05-03T00:33:08.280Z,984.53
2023-05-03T00:34:08.185Z,984.54
2023-05-03T00:35:08.156Z,984.53
2023-05-03T00:36:08.144Z,984.44
2023-05-03T00:37:08.133Z,984.56
2023-05-03T00:38:08.111Z,984.57
2023-05-03T00:39:08.099Z,984.54
2023-05-03T00:40:08.085Z,984.57
2023-05-03T00:41:08.128Z,984.58
2023-05-03T00:42:08.208Z,984.57
2023-05-03T00:43:08.052Z,984.57
2023-05-03T00:44:08.036Z,984.51
2023-05-03T00:45:08.067Z,984.46
2023-05-03T00:46:16.067Z,984.51
2023-05-03T00:47:09.130Z,984.45
2023-05-03T00:48:08.245Z,984.57
2023-05-03T00:49:08.321Z,984.47
2023-05-03T00:50:07.988Z,984.51
2023-05-03T00:51:07.934Z,984.52
2023-05-03T00:52:07.929Z,984.48
2023-05-03T00:53:07.910Z,984.47
2023-05-03T00:54:07.900Z,984.47
2023-05-03T00:55:07.882Z,984.45
2023-05-03T00:56:07.876Z,984.43
2023-05-03T00:57:07.859Z,984.42
2023-05-03T00:58:07.846Z,984.48
2023-05-03T00:59:07.831Z,984.45
2023-05-03T01:00:07.821Z,984.49
2023-05-03T01:01:09.269Z,984.46
2023-05-03T01:02:08.050Z,984.43
2023-05-03T01:03:07.911Z,984.43
2023-05-03T01:04:07.839Z,984.45
2023-05-03T01:05:07.752Z,984.46
2023-05-03T01:06:07.833Z,984.45
2023-05-03T01:07:07.841Z,984.46
2023-05-03T01:08:07.708Z,984.48
2023-05-03T01:09:07.851Z,984.53
2023-05-03T01:10:07.685Z,984.41
2023-05-03T01:11:07.670Z,984.46
2023-05-03T01:12:07.822Z,984.47
2023-05-03T01:13:07.657Z,984.44
2023-05-03T01:14:07.640Z,984.42
2023-05-03T01:15:07.617Z,984.44
2023-05-03T01:16:07.674Z,984.43
2023-05-03T01:17:07.588Z,984.53
2023-05-03T01:18:07.729Z,984.47
2023-05-03T01:19:07.636Z,984.46
2023-05-03T01:20:07.947Z,984.51
2023-05-03T01:21:08.388Z,984.42
2023-05-03T01:22:07.732Z,984.51
2023-05-03T01:23:07.513Z,984.47
2023-05-03T01:24:07.875Z,984.43
2023-05-03T01:25:07.831Z,984.49
2023-05-03T01:26:07.678Z,984.44
2023-05-03T01:27:07.755Z,984.44
2023-05-03T01:28:07.870Z,984.38
2023-05-03T01:29:07.775Z,984.37
2023-05-03T01:30:07.416Z,984.32
2023-05-03T01:31:07.631Z,984.32
2023-05-03T01:32:07.538Z,984.38
2023-05-03T01:33:07.569Z,984.32
2023-05-03T01:34:07.373Z,984.36
2023-05-03T01:35:07.348Z,984.41
2023-05-03T01:36:07.340Z,984.35
2023-05-03T01:37:07.324Z,984.31
2023-05-03T01:38:07.328Z,984.34
2023-05-03T01:39:07.296Z,984.25
2023-05-03T01:40:07.292Z,984.34
2023-05-03T01:41:07.276Z,984.25
2023-05-03T01:42:07.278Z,984.27
2023-05-03T01:43:07.238Z,984.32
2023-05-03T01:44:07.242Z,984.30
2023-05-03T01:45:07.231Z,984.31
2023-05-03T01:46:07.362Z,984.30
2023-05-03T01:47:07.194Z,984.30
2023-05-03T01:48:07.239Z,984.34
2023-05-03T01:49:07.167Z,984.40
2023-05-03T01:50:07.150Z,984.33
2023-05-03T01:51:07.139Z,984.37
2023-05-03T01:52:07.126Z,984.38
2023-05-03T01:53:07.114Z,984.38
2023-05-03T01:54:07.117Z,984.39
2023-05-03T01:55:07.083Z,984.33
2023-05-03T01:56:07.068Z,984.36
2023-05-03T01:57:07.054Z,984.37
2023-05-03T01:58:07.045Z,984.39
2023-05-03T01:59:07.030Z,984.44
2023-05-03T02:00:07.034Z,984.41
2023-05-03T02:01:07.081Z,984.49
2023-05-03T02:02:06.992Z,984.42
2023-05-03T02:03:07.072Z,984.44
2023-05-03T02:04:07.069Z,984.44
2023-05-03T02:05:06.959Z,984.39
2023-05-03T02:06:06.995Z,984.43
2023-05-03T02:07:06.929Z,984.37
2023-05-03T02:08:06.913Z,984.39
2023-05-03T02:09:07.262Z,984.40
2023-05-03T02:10:06.933Z,984.37
2023-05-03T02:11:06.893Z,984.37
2023-05-03T02:12:06.857Z,984.33
2023-05-03T02:13:06.855Z,984.34
2023-05-03T02:14:06.836Z,984.30
2023-05-03T02:15:06.814Z,984.32
2023-05-03T02:16:06.803Z,984.30
2023-05-03T02:17:06.829Z,984.27
2023-05-03T02:18:06.911Z,984.25
2023-05-03T02:19:06.762Z,984.29
2023-05-03T02:20:06.744Z,984.26
2023-05-03T02:21:06.737Z,984.24
2023-05-03T02:22:06.713Z,984.26
2023-05-03T02:23:06.706Z,984.19
2023-05-03T02:24:06.719Z,984.29
2023-05-03T02:25:06.682Z,984.27
2023-05-03T02:26:06.696Z,984.28
2023-05-03T02:27:06.655Z,984.28
2023-05-03T02:28:06.646Z,984.22
2023-05-03T02:29:06.625Z,984.30
2023-05-03T02:30:06.891Z,984.30
2023-05-03T02:31:06.777Z,984.26
2023-05-03T02:32:06.588Z,984.22
2023-05-03T02:33:06.628Z,984.28
2023-05-03T02:34:06.911Z,984.32
2023-05-03T02:35:06.551Z,984.28
2023-05-03T02:36:06.554Z,984.30
2023-05-03T02:37:06.551Z,984.23
2023-05-03T02:38:06.533Z,984.22
2023-05-03T02:39:06.489Z,984.29
2023-05-03T02:40:06.527Z,984.22
2023-05-03T02:41:06.473Z,984.28
2023-05-03T02:42:06.471Z,984.29
2023-05-03T02:43:06.434Z,984.27
2023-05-03T02:44:06.431Z,984.35
2023-05-03T02:45:06.517Z,984.31
2023-05-03T02:46:06.424Z,984.26
2023-05-03T02:47:06.390Z,984.25
2023-05-03T02:48:06.395Z,984.37
2023-05-03T02:49:06.382Z,984.29
2023-05-03T02:50:06.578Z,984.28
2023-05-03T02:51:06.350Z,984.23
2023-05-03T02:52:06.319Z,984.22
2023-05-03T02:53:06.310Z,984.17
2023-05-03T02:54:06.289Z,984.18
2023-05-03T02:55:06.277Z,984.19
2023-05-03T02:56:06.268Z,984.22
2023-05-03T02:57:06.252Z,984.26
2023-05-03T02:58:06.276Z,984.26
2023-05-03T02:59:06.216Z,984.35
2023-05-03T03:00:06.487Z,984.35
2023-05-03T03:01:06.277Z,984.31
2023-05-03T03:02:06.291Z,984.21
2023-05-03T03:03:06.227Z,984.34
2023-05-03T03:04:06.298Z,984.38
2023-05-03T03:05:06.139Z,984.39
2023-05-03T03:06:06.138Z,984.36
2023-05-03T03:07:06.179Z,984.26
2023-05-03T03:08:06.099Z,984.37
2023-05-03T03:09:06.084Z,984.29
2023-05-03T03:10:06.080Z,984.29
2023-05-03T03:11:06.055Z,984.31
2023-05-03T03:12:06.045Z,984.26
2023-05-03T03:13:06.028Z,984.28
2023-05-03T03:14:06.037Z,984.29
2023-05-03T03:15:06.004Z,984.28
2023-05-03T03:16:06.025Z,984.19
2023-05-03T03:17:05.980Z,984.30
2023-05-03T03:18:06.053Z,984.34
2023-05-03T03:19:05.949Z,984.33
2023-05-03T03:20:05.937Z,984.29
2023-05-03T03:21:05.923Z,984.27
2023-05-03T03:22:05.923Z,984.35
2023-05-03T03:23:05.892Z,984.32
2023-05-03T03:24:05.976Z,984.34
2023-05-03T03:25:05.865Z,984.28
2023-05-03T03:26:05.859Z,984.29
2023-05-03T03:27:05.889Z,984.22
2023-05-03T03:28:05.924Z,984.23
2023-05-03T03:29:05.812Z,984.30
2023-05-03T03:30:06.197Z,984.32
2023-05-03T03:31:05.797Z,984.27
2023-05-03T03:32:05.833Z,984.26
2023-05-03T03:33:05.915Z,984.28
2023-05-03T03:34:05.750Z,984.27
2023-05-03T03:35:05.884Z,984.25
2023-05-03T03:36:05.726Z,984.33
2023-05-03T03:37:05.910Z,984.29
2023-05-03T03:38:05.696Z,984.33
2023-05-03T03:39:05.928Z,984.27
2023-05-03T03:40:05.707Z,984.30
2023-05-03T03:41:05.905Z,984.27
2023-05-03T03:42:05.656Z,984.33
2023-05-03T03:43:06.024Z,984.33
2023-05-03T03:44:05.609Z,984.30
2023-05-03T03:45:05.600Z,984.30
2023-05-03T03:46:05.612Z,984.33
2023-05-03T03:47:05.649Z,984.33
2023-05-03T03:48:05.593Z,984.35
2023-05-03T03:49:05.547Z,984.33
2023-05-03T03:50:05.849Z,984.32
2023-05-03T03:51:05.524Z,984.33
2023-05-03T03:52:05.509Z,984.32
2023-05-03T03:53:05.492Z,984.31
2023-05-03T03:54:05.489Z,984.33
2023-05-03T03:55:05.527Z,984.35
2023-05-03T03:56:05.451Z,984.33
2023-05-03T03:57:05.431Z,984.31
2023-05-03T03:58:05.446Z,984.32
2023-05-03T03:59:05.418Z,984.42
2023-05-03T04:00:05.599Z,984.43
2023-05-03T04:01:05.384Z,984.35
2023-05-03T04:02:05.410Z,984.39
2023-05-03T04:03:07.405Z,984.43
2023-05-03T04:04:05.449Z,984.42
2023-05-03T04:05:05.418Z,984.39
2023-05-03T04:06:05.376Z,984.35
2023-05-03T04:07:05.308Z,984.44
2023-05-03T04:08:05.309Z,984.38
2023-05-03T04:09:05.279Z,984.38
2023-05-03T04:10:05.648Z,984.46
2023-05-03T04:11:05.248Z,984.42
2023-05-03T04:12:05.238Z,984.44
2023-05-03T04:13:05.220Z,984.44
2023-05-03T04:14:05.209Z,984.49
2023-05-03T04:15:05.196Z,984.47
2023-05-03T04:16:05.185Z,984.44
2023-05-03T04:17:05.230Z,984.49
2023-05-03T04:18:05.239Z,984.44
2023-05-03T04:19:05.148Z,984.39
2023-05-03T04:20:05.299Z,984.48
2023-05-03T04:21:05.116Z,984.54
2023-05-03T04:22:05.100Z,984.52
2023-05-03T04:23:05.105Z,984.52
2023-05-03T04:24:05.076Z,984.55
2023-05-03T04:25:05.065Z,984.61
2023-05-03T04:26:05.521Z,984.59
2023-05-03T04:27:05.045Z,984.59
2023-05-03T04:28:05.021Z,984.64
2023-05-03T04:29:05.015Z,984.61
2023-05-03T04:30:05.295Z,984.69
2023-05-03T04:31:05.030Z,984.67
2023-05-03T04:32:04.968Z,984.73
2023-05-03T04:33:05.029Z,984.69
2023-05-03T04:34:04.979Z,984.70
2023-05-03T04:35:04.931Z,984.71
2023-05-03T04:36:04.912Z,984.70
2023-05-03T04:37:04.906Z,984.74
2023-05-03T04:38:04.884Z,984.67
2023-05-03T04:39:04.869Z,984.64
2023-05-03T04:40:05.140Z,984.71
2023-05-03T04:41:04.843Z,984.74
2023-05-03T04:42:04.829Z,984.79
2023-05-03T04:43:04.816Z,984.75
2023-05-03T04:44:04.907Z,984.76
2023-05-03T04:45:04.793Z,984.74
2023-05-03T04:46:04.802Z,984.76
2023-05-03T04:47:04.762Z,984.77
2023-05-03T04:48:04.796Z,984.75
2023-05-03T04:49:04.747Z,984.78
2023-05-03T04:50:05.094Z,984.79
2023-05-03T04:51:04.736Z,984.84
2023-05-03T04:52:04.702Z,984.77
2023-05-03T04:53:04.688Z,984.82
2023-05-03T04:54:04.672Z,984.80
2023-05-03T04:55:04.692Z,984.82
2023-05-03T04:56:04.660Z,984.83
2023-05-03T04:57:04.628Z,984.80
2023-05-03T04:58:04.625Z,984.78
2023-05-03T04:59:04.623Z,984.80
2023-05-03T05:00:04.884Z,984.80
2023-05-03T05:01:04.599Z,984.81
2023-05-03T05:02:04.637Z,984.83
2023-05-03T05:03:04.649Z,984.80
2023-05-03T05:04:04.635Z,984.86
2023-05-03T05:05:04.536Z,984.85
2023-05-03T05:06:04.604Z,984.80
2023-05-03T05:07:04.501Z,984.78
2023-05-03T05:08:04.492Z,984.78
2023-05-03T05:09:04.470Z,984.78
2023-05-03T05:10:04.717Z,984.80
2023-05-03T05:11:04.448Z,984.79
2023-05-03T05:12:04.587Z,984.84
2023-05-03T05:13:04.413Z,984.76
2023-05-03T05:14:04.401Z,984.83
2023-05-03T05:15:04.410Z,984.81
2023-05-03T05:16:04.382Z,984.83
2023-05-03T05:17:04.413Z,984.78
2023-05-03T05:18:04.413Z,984.78
2023-05-03T05:19:04.347Z,984.85
2023-05-03T05:20:04.730Z,984.95
2023-05-03T05:21:04.322Z,984.94
2023-05-03T05:22:04.337Z,984.93
2023-05-03T05:23:04.277Z,984.89
2023-05-03T05:24:04.471Z,984.90
2023-05-03T05:25:04.251Z,984.89
2023-05-03T05:26:04.238Z,984.89
2023-05-03T05:27:04.221Z,984.89
2023-05-03T05:28:04.218Z,984.92
2023-05-03T05:29:04.204Z,984.89
2023-05-03T05:30:04.512Z,984.92
2023-05-03T05:31:04.178Z,985.01
2023-05-03T05:32:04.338Z,984.98
2023-05-03T05:33:04.184Z,984.95
2023-05-03T05:34:04.137Z,984.92
2023-05-03T05:35:04.128Z,984.99
2023-05-03T05:36:04.114Z,984.96
2023-05-03T05:37:04.093Z,984.93
2023-05-03T05:38:04.108Z,984.99
2023-05-03T05:39:04.066Z,984.94
2023-05-03T05:40:04.370Z,984.94
2023-05-03T05:41:05.236Z,984.98
2023-05-03T05:42:04.028Z,984.96
2023-05-03T05:43:04.012Z,984.98
2023-05-03T05:44:03.999Z,984.92
2023-05-03T05:45:03.983Z,984.90
2023-05-03T05:46:03.970Z,984.98
2023-05-03T05:47:04.430Z,984.98
2023-05-03T05:48:04.000Z,985.04
2023-05-03T05:49:03.931Z,984.99
2023-05-03T05:50:09.561Z,985.00
2023-05-03T05:51:04.944Z,985.02
2023-05-03T05:52:03.891Z,984.96
2023-05-03T05:53:03.880Z,985.08
2023-05-03T05:54:03.895Z,985.04
2023-05-03T05:55:03.888Z,984.98
2023-05-03T05:56:03.861Z,985.00
2023-05-03T05:57:03.835Z,984.96
2023-05-03T05:58:03.854Z,984.87
2023-05-03T05:59:03.799Z,984.92
2023-05-03T06:00:04.005Z,984.94
2023-05-03T06:01:03.806Z,984.89
2023-05-03T06:02:03.794Z,984.85
2023-05-03T06:03:03.787Z,984.84
2023-05-03T06:04:03.739Z,984.78
2023-05-03T06:05:05.546Z,984.81
2023-05-03T06:06:03.752Z,984.76
2023-05-03T06:07:03.696Z,984.76
2023-05-03T06:08:03.685Z,984.79
2023-05-03T06:09:13.204Z,984.76
2023-05-03T06:10:05.024Z,984.79
2023-05-03T06:11:03.647Z,984.78
2023-05-03T06:12:03.632Z,984.77
2023-05-03T06:13:03.617Z,984.87
2023-05-03T06:14:03.931Z,984.86
2023-05-03T06:15:03.623Z,984.82
2023-05-03T06:16:03.590Z,984.81
2023-05-03T06:17:03.584Z,984.76
2023-05-03T06:18:03.595Z,984.87
2023-05-03T06:19:03.539Z,984.88
2023-05-03T06:20:03.838Z,984.81
2023-05-03T06:21:03.506Z,984.91
2023-05-03T06:22:03.496Z,984.85
2023-05-03T06:23:03.502Z,984.78
2023-05-03T06:24:03.480Z,984.78
2023-05-03T06:25:03.457Z,984.80
2023-05-03T06:26:03.472Z,984.71
2023-05-03T06:27:03.448Z,984.71
2023-05-03T06:28:03.440Z,984.81
2023-05-03T06:29:03.403Z,984.73
2023-05-03T06:30:03.657Z,984.69
2023-05-03T06:31:03.381Z,984.68
2023-05-03T06:32:03.359Z,984.77
2023-05-03T06:33:03.373Z,984.70
2023-05-03T06:34:03.347Z,984.73
2023-05-03T06:35:03.378Z,984.75
2023-05-03T06:36:03.312Z,984.76
2023-05-03T06:37:03.304Z,984.80
2023-05-03T06:38:03.288Z,984.85
2023-05-03T06:39:03.315Z,984.81
2023-05-03T06:40:03.480Z,984.83
2023-05-03T06:41:03.241Z,984.76
2023-05-03T06:42:03.308Z,984.82
2023-05-03T06:43:03.211Z,984.81
2023-05-03T06:44:03.351Z,984.81
2023-05-03T06:45:03.197Z,984.77
2023-05-03T06:46:03.224Z,984.72
2023-05-03T06:47:03.696Z,984.83
2023-05-03T06:48:03.248Z,984.78
2023-05-03T06:49:03.156Z,984.82
2023-05-03T06:50:03.302Z,984.80
2023-05-03T06:51:03.108Z,984.77
2023-05-03T06:52:03.095Z,984.81
2023-05-03T06:53:03.226Z,984.81
2023-05-03T06:54:03.072Z,984.79
2023-05-03T06:55:03.078Z,984.84
2023-05-03T06:56:03.340Z,984.78
2023-05-03T06:57:03.026Z,984.82
2023-05-03T06:58:03.039Z,984.81
2023-05-03T06:59:02.994Z,984.84
2023-05-03T07:00:03.158Z,984.85
2023-05-03T07:01:02.969Z,984.82
2023-05-03T07:02:02.994Z,984.71
2023-05-03T07:03:03.029Z,984.75
2023-05-03T07:04:03.048Z,984.74
2023-05-03T07:05:02.917Z,984.75
2023-05-03T07:06:02.946Z,984.74
2023-05-03T07:07:02.944Z,984.73
2023-05-03T07:08:02.876Z,984.72
2023-05-03T07:09:02.863Z,984.77
2023-05-03T07:10:03.151Z,984.77
2023-05-03T07:11:02.836Z,984.75
2023-05-03T07:12:02.823Z,984.74
2023-05-03T07:13:02.822Z,984.76
2023-05-03T07:14:02.822Z,984.74
2023-05-03T07:15:02.790Z,984.68
2023-05-03T07:16:03.675Z,984.67
2023-05-03T07:17:02.780Z,984.63
2023-05-03T07:18:02.805Z,984.61
2023-05-03T07:19:02.720Z,984.60
2023-05-03T07:20:02.914Z,984.60
2023-05-03T07:21:02.693Z,984.54
2023-05-03T07:22:02.693Z,984.51
2023-05-03T07:23:02.675Z,984.40
2023-05-03T07:24:02.673Z,984.53
2023-05-03T07:25:02.660Z,984.50
2023-05-03T07:26:02.636Z,984.51
2023-05-03T07:27:02.618Z,984.38
2023-05-03T07:28:02.616Z,984.40
2023-05-03T07:29:02.589Z,984.37
2023-05-03T07:30:02.947Z,984.38
2023-05-03T07:31:02.560Z,984.38
2023-05-03T07:32:02.554Z,984.33
2023-05-03T07:33:02.607Z,984.39
2023-05-03T07:34:02.545Z,984.38
2023-05-03T07:35:02.506Z,984.31
2023-05-03T07:36:02.498Z,984.33
2023-05-03T07:37:02.499Z,984.29
2023-05-03T07:38:02.474Z,984.31
2023-05-03T07:39:02.467Z,984.38
2023-05-03T07:40:02.667Z,984.38
2023-05-03T07:41:02.434Z,984.38
2023-05-03T07:42:02.425Z,984.36
2023-05-03T07:43:02.404Z,984.41
2023-05-03T07:44:02.424Z,984.36
2023-05-03T07:45:02.381Z,984.35
2023-05-03T07:46:02.822Z,984.34
2023-05-03T07:47:02.351Z,984.30
2023-05-03T07:48:02.350Z,984.23
2023-05-03T07:49:02.326Z,984.20
2023-05-03T07:50:02.535Z,984.21
2023-05-03T07:51:02.292Z,984.22
2023-05-03T07:52:02.290Z,984.15
2023-05-03T07:53:02.269Z,984.02
2023-05-03T07:54:02.254Z,984.08
2023-05-03T07:55:02.244Z,984.10
2023-05-03T07:56:02.229Z,984.08
2023-05-03T07:57:02.229Z,984.06
2023-05-03T07:58:02.204Z,984.04
2023-05-03T07:59:09.124Z,984.05
2023-05-03T08:00:03.418Z,984.01
2023-05-03T08:01:02.163Z,984.02
2023-05-03T08:02:02.294Z,983.90
2023-05-03T08:03:02.218Z,983.87
2023-05-03T08:04:02.370Z,983.81
2023-05-03T08:05:02.318Z,983.79
2023-05-03T08:06:02.139Z,983.83
2023-05-03T08:07:02.133Z,983.76
2023-05-03T08:08:02.072Z,983.74
2023-05-03T08:09:02.052Z,983.70
2023-05-03T08:10:02.282Z,983.78
2023-05-03T08:11:02.035Z,983.74
2023-05-03T08:12:02.019Z,983.84
2023-05-03T08:13:02.008Z,983.78
2023-05-03T08:14:02.007Z,983.71
2023-05-03T08:15:01.988Z,983.66
2023-05-03T08:16:02.004Z,983.77
2023-05-03T08:17:01.955Z,983.71
2023-05-03T08:18:02.002Z,983.66
2023-05-03T08:19:01.930Z,983.66
2023-05-03T08:20:02.389Z,983.66
2023-05-03T08:21:01.899Z,983.65
2023-05-03T08:22:01.900Z,983.60
2023-05-03T08:23:01.887Z,983.63
2023-05-03T08:24:01.861Z,983.64
2023-05-03T08:25:01.848Z,983.70
2023-05-03T08:26:01.838Z,983.68
2023-05-03T08:27:01.820Z,983.67
2023-05-03T08:28:01.810Z,983.60
2023-05-03T08:29:01.960Z,983.64
2023-05-03T08:30:02.033Z,983.61
2023-05-03T08:31:01.871Z,983.64
2023-05-03T08:32:01.757Z,983.60
2023-05-03T08:33:01.791Z,983.59
2023-05-03T08:34:01.876Z,983.60
2023-05-03T08:35:01.724Z,983.50
2023-05-03T08:36:01.880Z,983.52
2023-05-03T08:37:01.692Z,983.53
2023-05-03T08:38:01.686Z,983.54
2023-05-03T08:39:01.667Z,983.51
2023-05-03T08:40:01.829Z,983.55
2023-05-03T08:41:01.659Z,983.43
2023-05-03T08:42:01.630Z,983.43
2023-05-03T08:43:01.616Z,983.48
2023-05-03T08:44:01.599Z,983.47
2023-05-03T08:45:01.587Z,983.37
2023-05-03T08:46:01.585Z,983.49
2023-05-03T08:47:01.618Z,983.40
2023-05-03T08:48:02.045Z,983.45
2023-05-03T08:49:01.541Z,983.39
2023-05-03T08:50:01.858Z,983.42
2023-05-03T08:51:01.511Z,983.39
2023-05-03T08:52:01.522Z,983.44
2023-05-03T08:53:01.494Z,983.43
2023-05-03T08:54:01.467Z,983.39
2023-05-03T08:55:01.466Z,983.41
2023-05-03T08:56:01.464Z,983.36
2023-05-03T08:57:01.438Z,983.41
2023-05-03T08:58:01.442Z,983.39
2023-05-03T08:59:01.404Z,983.41
2023-05-03T09:00:01.577Z,983.38
2023-05-03T09:01:01.379Z,983.38
2023-05-03T09:02:01.393Z,983.39
2023-05-03T09:03:01.482Z,983.31
2023-05-03T09:04:01.423Z,983.30
2023-05-03T09:05:01.529Z,983.27
2023-05-03T09:06:01.403Z,983.32
2023-05-03T09:07:01.303Z,983.29
2023-05-03T09:08:01.296Z,983.32
2023-05-03T09:09:01.284Z,983.30
2023-05-03T09:10:01.267Z,983.29
2023-05-03T09:11:01.253Z,983.33
2023-05-03T09:12:01.238Z,983.27
2023-05-03T09:13:01.388Z,983.31
2023-05-03T09:14:01.219Z,983.24
2023-05-03T09:15:01.217Z,983.26
2023-05-03T09:16:01.242Z,983.31
2023-05-03T09:17:01.327Z,983.22
2023-05-03T09:18:01.177Z,983.31
2023-05-03T09:19:01.166Z,983.40
2023-05-03T09:20:01.506Z,983.34
2023-05-03T09:21:01.134Z,983.38
2023-05-03T09:22:01.341Z,983.30
2023-05-03T09:23:01.117Z,983.30
2023-05-03T09:24:01.336Z,983.26
2023-05-03T09:25:01.078Z,983.25
2023-05-03T09:26:01.086Z,983.23
2023-05-03T09:27:01.050Z,983.30
2023-05-03T09:28:01.043Z,983.22
2023-05-03T09:29:01.032Z,983.26
2023-05-03T09:30:01.199Z,983.04
2023-05-03T09:31:01.005Z,983.23
2023-05-03T09:32:01.198Z,983.18
2023-05-03T09:33:01.029Z,983.24
2023-05-03T09:34:00.980Z,983.18
2023-05-03T09:35:01.548Z,983.18
2023-05-03T09:36:00.939Z,983.18
2023-05-03T09:37:00.938Z,983.19
2023-05-03T09:38:00.988Z,983.25
2023-05-03T09:39:00.900Z,983.34
2023-05-03T09:40:01.019Z,983.28
2023-05-03T09:41:00.907Z,983.23
2023-05-03T09:42:00.874Z,983.23
2023-05-03T09:43:02.125Z,983.29
2023-05-03T09:44:00.850Z,983.32
2023-05-03T09:45:00.888Z,983.11
2023-05-03T09:46:00.842Z,983.33
2023-05-03T09:47:00.816Z,983.16
2023-05-03T09:48:00.824Z,983.30
2023-05-03T09:49:00.779Z,983.20
2023-05-03T09:50:00.776Z,983.15
2023-05-03T09:51:00.767Z,983.08
2023-05-03T09:52:00.731Z,983.00
2023-05-03T09:53:00.730Z,983.07
2023-05-03T09:54:00.761Z,983.02
2023-05-03T09:55:00.795Z,983.03
2023-05-03T09:56:00.685Z,983.08
2023-05-03T09:57:00.688Z,982.91
2023-05-03T09:58:00.661Z,982.95
2023-05-03T09:59:00.651Z,982.93
2023-05-03T10:00:00.634Z,982.86
2023-05-03T10:01:00.633Z,982.92
2023-05-03T10:02:00.609Z,982.92
2023-05-03T10:03:00.657Z,982.86
2023-05-03T10:04:00.648Z,982.93
2023-05-03T10:05:00.584Z,982.97
2023-05-03T10:06:00.557Z,982.81
2023-05-03T10:07:00.567Z,982.80
2023-05-03T10:08:00.536Z,982.85
2023-05-03T10:09:00.522Z,982.83
2023-05-03T10:10:00.578Z,982.76
2023-05-03T10:11:00.500Z,982.80
2023-05-03T10:12:00.481Z,982.80
2023-05-03T10:13:00.473Z,982.79
2023-05-03T10:14:00.459Z,982.78
2023-05-03T10:15:00.504Z,982.70
2023-05-03T10:16:00.595Z,982.78
2023-05-03T10:17:00.415Z,982.74
2023-05-03T10:18:00.428Z,982.75
2023-05-03T10:19:00.400Z,982.76
2023-05-03T10:20:00.393Z,982.68
2023-05-03T10:21:00.374Z,982.68
2023-05-03T10:22:00.362Z,982.65
2023-05-03T10:23:00.348Z,982.63
2023-05-03T10:24:00.340Z,982.65
2023-05-03T10:25:00.693Z,982.60
2023-05-03T10:26:00.342Z,982.59
2023-05-03T10:27:00.293Z,982.70
2023-05-03T10:28:00.278Z,982.73
2023-05-03T10:29:01.410Z,982.70
2023-05-03T10:30:00.280Z,982.66
2023-05-03T10:31:00.356Z,982.57
2023-05-03T10:32:00.230Z,982.59
2023-05-03T10:33:00.421Z,982.62
2023-05-03T10:34:00.235Z,982.52
2023-05-03T10:35:00.214Z,982.63
2023-05-03T10:36:00.397Z,982.62
2023-05-03T10:37:00.181Z,982.76
2023-05-03T10:38:00.160Z,982.65
2023-05-03T10:39:00.156Z,982.66
2023-05-03T10:40:00.165Z,982.72
2023-05-03T10:41:00.141Z,982.70
2023-05-03T10:42:00.124Z,982.73
2023-05-03T10:43:00.160Z,982.63
2023-05-03T10:44:00.106Z,982.60
2023-05-03T10:45:00.065Z,982.52
2023-05-03T10:46:00.150Z,982.60
2023-05-03T10:47:00.043Z,982.47
2023-05-03T10:48:00.175Z,982.55
2023-05-03T10:49:00.030Z,982.84
2023-05-03T10:50:00.041Z,982.71
2023-05-03T10:50:59.989Z,982.57
2023-05-03T10:51:59.977Z,982.59
2023-05-03T10:52:59.969Z,982.64
2023-05-03T10:53:59.961Z,982.56
2023-05-03T10:54:59.950Z,982.63
2023-05-03T10:55:59.931Z,982.70
2023-05-03T10:57:00.040Z,982.61
2023-05-03T10:57:59.933Z,982.54
2023-05-03T10:58:59.892Z,982.49
2023-05-03T10:59:59.881Z,982.63
2023-05-03T11:00:59.885Z,982.56
2023-05-03T11:02:00.045Z,982.53
2023-05-03T11:02:59.907Z,982.65
2023-05-03T11:03:59.877Z,982.56
2023-05-03T11:04:59.955Z,982.50
2023-05-03T11:05:59.808Z,982.57
2023-05-03T11:06:59.790Z,982.54
2023-05-03T11:07:59.779Z,982.47
2023-05-03T11:08:59.763Z,982.35
2023-05-03T11:09:59.749Z,982.49
2023-05-03T11:10:59.752Z,982.48
2023-05-03T11:11:59.729Z,982.55
2023-05-03T11:12:59.712Z,982.45
2023-05-03T11:13:59.806Z,982.46
2023-05-03T11:14:59.693Z,982.54
2023-05-03T11:15:59.745Z,982.37
2023-05-03T11:16:59.871Z,982.41
2023-05-03T11:17:59.668Z,982.41
2023-05-03T11:18:59.648Z,982.39
2023-05-03T11:19:59.631Z,982.31
2023-05-03T11:20:59.623Z,982.16
2023-05-03T11:21:59.611Z,982.28
2023-05-03T11:22:59.590Z,982.47
2023-05-03T11:23:59.579Z,982.46
2023-05-03T11:24:59.565Z,982.56
2023-05-03T11:25:59.551Z,982.44
2023-05-03T11:26:59.544Z,982.44
2023-05-03T11:28:00.552Z,982.24
2023-05-03T11:28:59.518Z,982.25
2023-05-03T11:29:59.582Z,982.19
2023-05-03T11:30:59.495Z,982.26
2023-05-03T11:31:59.561Z,982.24
2023-05-03T11:32:59.484Z,982.11
2023-05-03T11:33:59.450Z,982.17
2023-05-03T11:34:59.463Z,982.15
2023-05-03T11:35:59.429Z,982.08
2023-05-03T11:36:59.424Z,982.09
2023-05-03T11:37:59.402Z,982.21
2023-05-03T11:38:59.387Z,982.30
2023-05-03T11:39:59.372Z,982.08
2023-05-03T11:40:59.361Z,982.13
2023-05-03T11:41:59.348Z,982.28
2023-05-03T11:42:59.334Z,982.27
2023-05-03T11:44:14.503Z,982.13
2023-05-03T11:45:00.339Z,982.15
2023-05-03T11:45:59.462Z,982.04
2023-05-03T11:46:59.376Z,982.14
2023-05-03T11:47:59.323Z,982.27
2023-05-03T11:48:59.300Z,982.17
2023-05-03T11:49:59.305Z,982.15
2023-05-03T11:50:59.278Z,982.09
2023-05-03T11:51:59.244Z,982.11
2023-05-03T11:52:59.208Z,982.10
2023-05-03T11:54:01.259Z,982.09
2023-05-03T11:54:59.191Z,982.15
2023-05-03T11:55:59.171Z,982.15
2023-05-03T11:56:59.733Z,982.09
2023-05-03T11:57:59.150Z,982.09
2023-05-03T11:58:59.136Z,982.04
2023-05-03T11:59:59.129Z,982.05
2023-05-03T12:00:59.118Z,981.98
2023-05-03T12:01:59.126Z,982.03
2023-05-03T12:02:59.328Z,982.05
2023-05-03T12:03:59.460Z,982.05
2023-05-03T12:04:59.196Z,982.11
2023-05-03T12:05:59.374Z,982.06
2023-05-03T12:07:00.111Z,982.05
2023-05-03T12:07:59.783Z,981.99
2023-05-03T12:08:59.727Z,981.88
2023-05-03T12:10:13.772Z,981.96
2023-05-03T12:11:02.225Z,982.00
2023-05-03T12:12:01.484Z,981.94
2023-05-03T12:13:00.519Z,981.98
2023-05-03T12:13:59.128Z,981.95
2023-05-03T12:14:59.345Z,981.90
2023-05-03T12:16:10.839Z,981.86
2023-05-03T12:17:00.575Z,981.88
2023-05-03T12:18:00.257Z,981.84
2023-05-03T12:19:01.582Z,981.74
2023-05-03T12:20:31.938Z,981.68
2023-05-03T12:22:59.598Z,981.97
2023-05-03T12:24:01.324Z,981.91
2023-05-03T12:24:59.014Z,981.80
2023-05-03T12:26:00.963Z,981.86
2023-05-03T12:27:00.109Z,981.91
2023-05-03T12:28:18.017Z,981.78
2023-05-03T12:29:01.845Z,981.79
2023-05-03T12:30:00.744Z,981.78